createdAt,value
2022-10-19T00:00:09.555Z,511.40
2022-10-19T00:02:57.426Z,485.65
2022-10-19T00:05:45.318Z,496.48
2022-10-19T00:08:34.637Z,472.35
2022-10-19T00:11:23.667Z,486.77
2022-10-19T00:14:14.975Z,468.83
2022-10-19T00:17:02.979Z,490.65
2022-10-19T00:19:50.959Z,482.80
2022-10-19T00:22:39.265Z,477.50
2022-10-19T00:25:28.625Z,470.05
2022-10-19T00:28:16.545Z,476.23
2022-10-19T00:31:05.896Z,477.95
2022-10-19T00:33:54.728Z,499.77
2022-10-19T00:36:42.625Z,502.90
2022-10-19T00:39:30.695Z,490.77
2022-10-19T00:42:19.928Z,521.65
2022-10-19T00:45:14.525Z,520.17
2022-10-19T00:48:02.514Z,518.08
2022-10-19T00:50:51.980Z,513.38
2022-10-19T00:53:40.325Z,486.52
2022-10-19T00:56:28.274Z,513.67
2022-10-19T00:59:22.029Z,508.67
2022-10-19T01:02:10.032Z,518.25
2022-10-19T01:04:59.286Z,488.17
2022-10-19T01:07:47.222Z,505.23
2022-10-19T01:10:46.651Z,497.13
2022-10-19T01:13:44.953Z,494.30
2022-10-19T01:16:41.713Z,503.50
2022-10-19T01:19:51.962Z,513.67
2022-10-19T01:22:56.624Z,522.13
2022-10-19T01:25:55.470Z,507.90
2022-10-19T01:28:56.333Z,513.75
2022-10-19T01:31:50.497Z,495.33
2022-10-19T01:34:47.183Z,520.47
2022-10-19T01:37:41.005Z,537.92
2022-10-19T01:40:34.438Z,531.22
2022-10-19T01:43:34.336Z,529.40
2022-10-19T01:46:28.253Z,523.25
2022-10-19T01:49:21.674Z,513.85
2022-10-19T01:52:14.238Z,529.00
2022-10-19T01:55:04.414Z,527.50
2022-10-19T01:57:59.146Z,496.55
2022-10-19T02:00:50.725Z,537.50
2022-10-19T02:03:40.097Z,532.42
2022-10-19T02:06:29.500Z,503.92
2022-10-19T02:09:18.534Z,498.42
2022-10-19T02:12:10.357Z,501.48
2022-10-19T02:15:02.554Z,525.28
2022-10-19T02:17:53.445Z,523.65
2022-10-19T02:20:41.396Z,494.63
2022-10-19T02:23:30.910Z,499.35
2022-10-19T02:26:19.461Z,533.13
2022-10-19T02:29:07.862Z,514.78
2022-10-19T02:31:55.857Z,494.63
2022-10-19T02:34:43.822Z,495.27
2022-10-19T02:37:31.744Z,497.13
2022-10-19T02:40:22.010Z,486.85
2022-10-19T02:43:13.898Z,464.63
2022-10-19T02:46:06.569Z,484.77
2022-10-19T02:48:56.080Z,455.95
2022-10-19T02:51:59.485Z,446.67
2022-10-19T02:54:47.466Z,457.48
2022-10-19T02:57:37.403Z,452.17
2022-10-19T03:00:25.464Z,460.83
2022-10-19T03:03:13.415Z,454.13
2022-10-19T03:06:01.329Z,467.65
2022-10-19T03:08:49.263Z,451.00
2022-10-19T03:11:37.383Z,456.83
2022-10-19T03:14:26.673Z,473.23
2022-10-19T03:17:14.736Z,460.13
2022-10-19T03:20:02.798Z,491.60
2022-10-19T03:25:44.256Z,455.90
2022-10-19T03:28:33.182Z,480.65
2022-10-19T03:31:22.462Z,484.02
2022-10-19T03:34:10.355Z,494.27
2022-10-19T03:36:59.215Z,489.88
2022-10-19T03:39:47.202Z,504.45
2022-10-19T03:42:35.167Z,488.48
2022-10-19T03:45:23.099Z,522.33
2022-10-19T03:48:12.326Z,498.45
2022-10-19T03:51:00.961Z,501.75
2022-10-19T03:53:52.655Z,487.17
2022-10-19T03:56:40.577Z,527.65
2022-10-19T03:59:28.578Z,511.65
2022-10-19T04:02:16.528Z,533.35
2022-10-19T04:05:06.786Z,500.92
2022-10-19T04:07:54.677Z,511.00
2022-10-19T04:10:42.588Z,510.60
2022-10-19T04:13:31.406Z,513.35
2022-10-19T04:16:20.198Z,497.48
2022-10-19T04:19:08.202Z,503.15
2022-10-19T04:21:57.492Z,514.58
2022-10-19T04:24:45.398Z,474.65
2022-10-19T04:27:33.634Z,530.17
2022-10-19T04:30:21.791Z,491.58
2022-10-19T04:33:09.761Z,522.53
2022-10-19T04:35:59.432Z,525.22
2022-10-19T04:38:48.849Z,493.25
2022-10-19T04:41:38.447Z,515.08
2022-10-19T04:44:26.405Z,512.50
2022-10-19T04:47:14.352Z,520.40
2022-10-19T04:50:02.327Z,505.80
2022-10-19T04:52:50.230Z,533.53
2022-10-19T04:55:42.762Z,508.25
2022-10-19T04:58:30.668Z,514.20
2022-10-19T05:01:20.863Z,513.05
2022-10-19T05:04:11.056Z,487.15
2022-10-19T05:06:59.003Z,505.55
2022-10-19T05:09:46.879Z,484.85
2022-10-19T05:12:37.041Z,522.53
2022-10-19T05:15:24.979Z,492.73
2022-10-19T05:18:12.888Z,513.85
2022-10-19T05:21:05.779Z,506.92
2022-10-19T05:23:54.808Z,496.05
2022-10-19T05:26:42.711Z,482.40
2022-10-19T05:29:33.759Z,493.33
2022-10-19T05:32:21.678Z,495.02
2022-10-19T05:35:09.959Z,501.25
2022-10-19T05:37:57.967Z,503.98
2022-10-19T05:40:50.367Z,488.83
2022-10-19T05:43:42.922Z,495.83
2022-10-19T05:46:33.735Z,479.55
2022-10-19T05:49:23.146Z,512.95
2022-10-19T05:52:11.061Z,486.63
2022-10-19T05:54:59.222Z,506.25
2022-10-19T05:57:47.157Z,518.90
2022-10-19T06:00:35.100Z,487.13
2022-10-19T06:03:25.871Z,477.55
2022-10-19T06:05:54.008Z,504.58
2022-10-19T06:08:23.509Z,496.13
2022-10-19T06:10:51.637Z,515.55
2022-10-19T06:13:20.602Z,468.58
2022-10-19T06:15:52.148Z,485.95
2022-10-19T06:18:20.302Z,502.42
2022-10-19T06:20:49.239Z,497.38
2022-10-19T06:23:16.846Z,499.17
2022-10-19T06:25:44.525Z,488.90
2022-10-19T06:28:12.279Z,497.13
2022-10-19T06:30:40.742Z,489.42
2022-10-19T06:33:09.022Z,483.38
2022-10-19T06:35:38.280Z,460.85
2022-10-19T06:38:07.270Z,473.30
2022-10-19T06:40:35.605Z,451.02
2022-10-19T06:43:03.330Z,456.40
2022-10-19T06:45:35.526Z,477.20
2022-10-19T06:48:06.750Z,448.20
2022-10-19T06:50:35.661Z,482.30
2022-10-19T06:53:03.323Z,453.05
2022-10-19T06:55:32.309Z,476.23
2022-10-19T06:58:01.591Z,481.85
2022-10-19T07:00:30.241Z,518.28
2022-10-19T07:02:59.505Z,492.90
2022-10-19T07:05:27.327Z,507.42
2022-10-19T07:07:55.009Z,494.33
2022-10-19T07:10:22.673Z,523.83
2022-10-19T07:12:51.667Z,521.97
2022-10-19T07:15:19.313Z,506.35
2022-10-19T07:17:46.921Z,514.63
2022-10-19T07:20:14.582Z,529.90
2022-10-19T07:22:42.213Z,521.00
2022-10-19T07:25:10.155Z,529.45
2022-10-19T07:27:40.040Z,530.20
2022-10-19T07:30:09.937Z,504.20
2022-10-19T07:32:37.603Z,558.08
2022-10-19T07:35:06.145Z,520.88
2022-10-19T07:37:34.036Z,532.85
2022-10-19T07:40:01.812Z,527.90
2022-10-19T07:42:30.331Z,551.15
2022-10-19T07:44:57.932Z,537.80
2022-10-19T07:47:27.078Z,522.63
2022-10-19T07:49:54.766Z,540.30
2022-10-19T07:52:22.463Z,517.83
2022-10-19T07:54:50.091Z,524.25
2022-10-19T07:57:17.871Z,532.33
2022-10-19T07:59:45.513Z,522.45
2022-10-19T08:02:16.750Z,538.85
2022-10-19T08:05:00.405Z,555.22
2022-10-19T08:07:29.734Z,563.00
2022-10-19T08:09:57.421Z,543.58
2022-10-19T08:12:25.107Z,538.17
2022-10-19T08:14:54.317Z,532.13
2022-10-19T08:17:21.934Z,540.47
2022-10-19T08:19:50.909Z,553.67
2022-10-19T08:22:18.538Z,553.20
2022-10-19T08:24:46.215Z,517.13
2022-10-19T08:27:14.745Z,553.42
2022-10-19T08:29:42.414Z,523.35
2022-10-19T08:32:10.267Z,537.22
2022-10-19T08:34:38.048Z,537.30
2022-10-19T08:37:19.703Z,498.85
2022-10-19T08:39:54.642Z,507.20
2022-10-19T08:42:25.863Z,526.78
2022-10-19T08:45:16.331Z,500.98
2022-10-19T08:47:59.062Z,496.85
2022-10-19T08:50:29.438Z,495.33
2022-10-19T08:53:02.838Z,477.80
2022-10-19T08:55:40.979Z,491.48
2022-10-19T08:58:22.309Z,523.08
2022-10-19T09:00:59.671Z,525.35
2022-10-19T09:03:54.981Z,517.88
2022-10-19T09:06:28.190Z,514.92
2022-10-19T09:08:58.568Z,522.25
2022-10-19T09:11:29.588Z,547.65
2022-10-19T09:14:05.697Z,537.50
2022-10-19T09:16:34.736Z,562.97
2022-10-19T09:19:02.686Z,536.33
2022-10-19T09:21:45.915Z,541.95
2022-10-19T09:24:28.595Z,516.30
2022-10-19T09:26:59.720Z,515.15
2022-10-19T09:29:38.109Z,542.58
2022-10-19T09:32:13.101Z,517.72
2022-10-19T09:34:45.523Z,518.63
2022-10-19T09:37:20.165Z,521.95
2022-10-19T09:39:55.019Z,519.25
2022-10-19T09:42:28.997Z,533.38
2022-10-19T09:44:59.090Z,505.27
2022-10-19T09:47:35.777Z,504.85
2022-10-19T09:50:14.806Z,496.00
2022-10-19T09:52:44.952Z,515.67
2022-10-19T09:55:27.051Z,490.15
2022-10-19T09:58:01.870Z,543.72
2022-10-19T10:00:39.493Z,508.08
2022-10-19T10:03:07.603Z,507.65
2022-10-19T10:05:37.777Z,520.22
2022-10-19T10:08:13.614Z,529.13
2022-10-19T10:10:46.777Z,543.13
2022-10-19T10:13:18.821Z,536.25
2022-10-19T10:15:49.825Z,552.88
2022-10-19T10:18:19.669Z,547.55
2022-10-19T10:21:00.555Z,549.17
2022-10-19T10:23:31.533Z,545.35
2022-10-19T10:26:01.588Z,531.88
2022-10-19T10:28:30.781Z,557.72
2022-10-19T10:31:03.636Z,552.50
2022-10-19T10:33:44.201Z,539.78
2022-10-19T10:36:13.481Z,554.20
2022-10-19T10:38:46.474Z,537.97
2022-10-19T10:41:18.114Z,541.58
2022-10-19T10:43:57.504Z,541.88
2022-10-19T10:46:30.033Z,559.75
2022-10-19T10:49:00.099Z,537.05
2022-10-19T10:51:34.429Z,554.10
2022-10-19T10:54:16.740Z,559.80
2022-10-19T10:57:01.852Z,560.97
2022-10-19T10:59:41.678Z,556.72
2022-10-19T11:04:59.882Z,561.33
2022-10-19T11:07:30.115Z,567.40
2022-10-19T11:09:59.623Z,564.45
2022-10-19T11:12:36.981Z,545.17
2022-10-19T11:15:13.662Z,548.28
2022-10-19T11:17:55.463Z,548.20
2022-10-19T11:20:25.766Z,561.33
2022-10-19T11:22:58.827Z,572.10
2022-10-19T11:25:37.477Z,560.28
2022-10-19T11:28:20.431Z,544.25
2022-10-19T11:30:56.898Z,545.30
2022-10-19T11:33:39.160Z,542.58
2022-10-19T11:36:17.365Z,537.97
2022-10-19T11:38:53.921Z,550.45
2022-10-19T11:41:31.633Z,566.30
2022-10-19T11:44:21.051Z,538.33
2022-10-19T11:46:58.238Z,532.00
2022-10-19T11:49:41.445Z,540.15
2022-10-19T11:52:16.906Z,513.08
2022-10-19T11:54:59.212Z,530.97
2022-10-19T11:57:32.261Z,572.30
2022-10-19T12:00:15.460Z,582.38
2022-10-19T12:03:19.457Z,558.90
2022-10-19T12:05:57.174Z,542.80
2022-10-19T12:08:38.292Z,582.00
2022-10-19T12:11:19.038Z,561.30
2022-10-19T12:13:51.992Z,572.47
2022-10-19T12:16:26.258Z,550.03
2022-10-19T12:19:00.339Z,569.38
2022-10-19T12:21:31.523Z,575.22
2022-10-19T12:24:02.800Z,571.15
2022-10-19T12:26:35.006Z,550.08
2022-10-19T12:29:06.449Z,536.13
2022-10-19T12:31:36.957Z,547.63
2022-10-19T12:34:10.922Z,534.75
2022-10-19T12:36:44.302Z,524.20
2022-10-19T12:39:18.565Z,533.85
2022-10-19T12:41:53.073Z,525.05
2022-10-19T12:44:58.753Z,537.25
2022-10-19T12:47:28.007Z,541.50
2022-10-19T12:49:58.918Z,514.80
2022-10-19T12:52:44.283Z,513.05
2022-10-19T12:55:27.752Z,514.58
2022-10-19T12:58:02.373Z,521.03
2022-10-19T13:00:32.700Z,502.75
2022-10-19T13:03:05.750Z,531.15
2022-10-19T13:05:35.532Z,514.20
2022-10-19T13:08:08.001Z,496.45
2022-10-19T13:10:38.604Z,514.00
2022-10-19T13:13:06.584Z,538.30
2022-10-19T13:15:55.124Z,532.00
2022-10-19T13:19:06.054Z,537.33
2022-10-19T13:21:53.097Z,513.72
2022-10-19T13:24:29.054Z,521.53
2022-10-19T13:27:26.142Z,541.00
2022-10-19T13:29:53.811Z,511.52
2022-10-19T13:32:33.385Z,523.20
2022-10-19T13:35:31.399Z,537.20
2022-10-19T13:38:24.097Z,521.20
2022-10-19T13:41:02.199Z,507.75
2022-10-19T13:43:32.975Z,508.85
2022-10-19T13:46:07.057Z,534.40
2022-10-19T13:48:46.856Z,504.20
2022-10-19T13:51:21.654Z,502.02
2022-10-19T13:54:01.224Z,533.22
2022-10-19T13:57:00.638Z,525.65
2022-10-19T14:00:12.858Z,520.35
2022-10-19T14:02:56.866Z,496.30
2022-10-19T14:05:44.870Z,519.40
2022-10-19T14:08:31.102Z,485.13
2022-10-19T14:11:04.152Z,534.15
2022-10-19T14:13:32.678Z,543.17
2022-10-19T14:16:02.842Z,498.23
2022-10-19T14:18:33.422Z,524.28
2022-10-19T14:21:02.951Z,481.65
2022-10-19T14:23:33.092Z,527.85
2022-10-19T14:26:05.375Z,513.65
2022-10-19T14:28:34.410Z,508.85
2022-10-19T14:31:04.246Z,535.28
2022-10-19T14:33:35.449Z,527.30
2022-10-19T14:36:03.542Z,540.20
2022-10-19T14:38:35.248Z,538.95
2022-10-19T14:41:05.528Z,561.97
2022-10-19T14:43:35.236Z,531.97
2022-10-19T14:46:11.864Z,583.03
2022-10-19T14:48:40.932Z,529.72
2022-10-19T14:51:17.438Z,533.28
2022-10-19T14:53:48.493Z,560.70
2022-10-19T14:56:22.500Z,520.25
2022-10-19T14:58:54.535Z,549.00
2022-10-19T15:01:22.765Z,512.72
2022-10-19T15:03:51.362Z,538.70
2022-10-19T15:06:23.691Z,549.90
2022-10-19T15:11:31.127Z,530.08
2022-10-19T15:14:03.602Z,527.53
2022-10-19T15:16:34.805Z,526.15
2022-10-19T15:19:07.082Z,547.08
2022-10-19T15:21:34.743Z,528.75
2022-10-19T15:24:16.611Z,538.85
2022-10-19T15:27:06.589Z,513.88
2022-10-19T15:29:36.622Z,508.33
2022-10-19T15:32:15.390Z,528.08
2022-10-19T15:34:44.945Z,545.45
2022-10-19T15:37:19.712Z,548.83
2022-10-19T15:39:48.528Z,509.48
2022-10-19T15:42:37.389Z,537.88
2022-10-19T15:45:06.117Z,526.45
2022-10-19T15:47:34.596Z,532.47
2022-10-19T15:50:03.856Z,492.77
2022-10-19T15:52:34.187Z,507.13
2022-10-19T15:55:02.925Z,549.22
2022-10-19T15:57:34.463Z,493.92
2022-10-19T16:00:07.798Z,516.33
2022-10-19T16:02:35.506Z,501.50
2022-10-19T16:05:03.219Z,483.38
2022-10-19T16:07:33.270Z,493.45
2022-10-19T16:10:01.252Z,484.05
2022-10-19T16:12:28.890Z,497.35
2022-10-19T16:14:57.867Z,511.98
2022-10-19T16:17:25.660Z,449.65
2022-10-19T16:19:53.285Z,454.60
2022-10-19T16:22:21.271Z,477.33
2022-10-19T16:24:48.982Z,453.38
2022-10-19T16:27:16.958Z,459.85
2022-10-19T16:29:45.238Z,475.42
2022-10-19T16:32:14.397Z,487.60
2022-10-19T16:34:42.231Z,464.77
2022-10-19T16:37:09.822Z,472.40
2022-10-19T16:39:37.459Z,475.00
2022-10-19T16:42:05.244Z,468.02
2022-10-19T16:44:33.026Z,494.00
2022-10-19T16:47:00.721Z,481.75
2022-10-19T16:49:29.880Z,476.88
2022-10-19T16:51:57.872Z,478.25
2022-10-19T16:54:26.438Z,484.38
2022-10-19T16:56:55.453Z,445.55
2022-10-19T16:59:23.521Z,461.02
2022-10-19T17:01:51.468Z,478.73
2022-10-19T17:04:19.209Z,486.67
2022-10-19T17:06:48.465Z,459.08
2022-10-19T17:12:04.111Z,435.40
2022-10-19T17:14:31.891Z,474.27
2022-10-19T17:16:59.717Z,460.75
2022-10-19T17:19:27.368Z,446.80
2022-10-19T17:21:57.574Z,451.45
2022-10-19T17:24:25.627Z,453.67
2022-10-19T17:26:54.019Z,441.65
2022-10-19T17:29:23.288Z,446.17
2022-10-19T17:31:51.529Z,419.38
2022-10-19T17:34:19.400Z,447.33
2022-10-19T17:36:47.295Z,426.98
2022-10-19T17:39:18.614Z,425.17
2022-10-19T17:41:46.800Z,406.70
2022-10-19T17:44:14.903Z,429.63
2022-10-19T17:46:42.678Z,411.50
2022-10-19T17:49:11.086Z,443.60
2022-10-19T17:51:39.638Z,428.63
2022-10-19T17:54:09.385Z,460.30
2022-10-19T17:56:39.099Z,428.30
2022-10-19T17:59:07.934Z,426.83
2022-10-19T18:01:36.995Z,421.02
2022-10-19T18:04:05.720Z,450.50
2022-10-19T18:06:35.656Z,442.45
2022-10-19T18:09:05.827Z,427.45
2022-10-19T18:11:36.932Z,439.02
2022-10-19T18:14:07.830Z,422.98
2022-10-19T18:16:37.792Z,440.10
2022-10-19T18:19:07.154Z,431.48
2022-10-19T18:21:38.360Z,428.55
2022-10-19T18:24:09.062Z,425.98
2022-10-19T18:26:40.049Z,410.85
2022-10-19T18:29:13.460Z,414.83
2022-10-19T18:31:41.281Z,438.45
2022-10-19T18:34:14.384Z,467.27
2022-10-19T18:36:42.786Z,438.92
2022-10-19T18:39:11.463Z,442.58
2022-10-19T18:41:40.390Z,421.27
2022-10-19T18:44:09.731Z,443.58
2022-10-19T18:46:38.753Z,414.15
2022-10-19T18:49:09.112Z,417.23
2022-10-19T18:51:37.438Z,435.65
2022-10-19T18:54:05.558Z,429.08
2022-10-19T18:56:36.311Z,415.27
2022-10-19T18:59:04.338Z,415.30
2022-10-19T19:01:32.268Z,412.17
2022-10-19T19:04:07.628Z,444.15
2022-10-19T19:06:36.231Z,425.13
2022-10-19T19:09:06.693Z,445.83
2022-10-19T19:11:37.382Z,437.65
2022-10-19T19:14:07.609Z,414.15
2022-10-19T19:16:37.847Z,446.75
2022-10-19T19:19:07.671Z,417.75
2022-10-19T19:21:36.567Z,458.33
2022-10-19T19:24:06.695Z,435.60
2022-10-19T19:26:36.386Z,439.13
2022-10-19T19:29:04.852Z,414.15
2022-10-19T19:31:32.742Z,422.85
2022-10-19T19:34:01.773Z,446.27
2022-10-19T19:36:30.856Z,411.30
2022-10-19T19:38:59.129Z,413.83
2022-10-19T19:41:28.736Z,437.67
2022-10-19T19:43:57.496Z,400.35
2022-10-19T19:46:25.328Z,441.00
2022-10-19T19:49:00.045Z,413.17
2022-10-19T19:51:28.547Z,430.33
2022-10-19T19:53:58.128Z,423.10
2022-10-19T19:56:26.289Z,434.35
2022-10-19T19:58:56.776Z,435.27
2022-10-19T20:01:24.575Z,411.63
2022-10-19T20:04:11.704Z,391.00
2022-10-19T20:06:57.720Z,414.77
2022-10-19T20:09:47.032Z,400.95
2022-10-19T20:12:34.939Z,412.45
2022-10-19T20:15:22.937Z,411.42
2022-10-19T20:18:10.873Z,400.98
2022-10-19T20:21:02.069Z,429.58
2022-10-19T20:23:50.716Z,421.92
2022-10-19T20:26:40.167Z,399.85
2022-10-19T20:29:28.106Z,404.38
2022-10-19T20:32:15.999Z,439.73
2022-10-19T20:35:04.614Z,413.48
2022-10-19T20:37:52.582Z,403.95
2022-10-19T20:40:41.456Z,412.98
2022-10-19T20:43:30.774Z,398.50
2022-10-19T20:46:22.112Z,437.13
2022-10-19T20:49:12.573Z,422.23
2022-10-19T20:52:00.519Z,427.70
2022-10-19T20:54:49.044Z,443.50
2022-10-19T20:57:36.948Z,443.30
2022-10-19T21:00:26.309Z,434.50
2022-10-19T21:03:14.267Z,445.95
2022-10-19T21:06:06.564Z,435.02
2022-10-19T21:08:54.888Z,415.42
2022-10-19T21:11:44.236Z,452.02
2022-10-19T21:14:32.178Z,439.30
2022-10-19T21:17:21.509Z,432.23
2022-10-19T21:20:10.205Z,437.45
2022-10-19T21:22:59.056Z,420.73
2022-10-19T21:25:58.080Z,436.88
2022-10-19T21:28:50.662Z,437.20
2022-10-19T21:31:39.758Z,424.67
2022-10-19T21:34:30.855Z,431.10
2022-10-19T21:37:18.778Z,444.75
2022-10-19T21:40:07.707Z,439.38
2022-10-19T21:42:55.617Z,431.60
2022-10-19T21:45:43.505Z,421.10
2022-10-19T21:48:32.483Z,461.88
2022-10-19T21:51:29.076Z,452.38
2022-10-19T21:54:19.424Z,411.50
2022-10-19T21:57:07.290Z,441.98
2022-10-19T21:59:55.161Z,416.75
2022-10-19T22:02:42.996Z,416.83
2022-10-19T22:05:30.875Z,436.77
2022-10-19T22:08:20.191Z,460.40
2022-10-19T22:11:10.109Z,462.33
2022-10-19T22:13:59.703Z,432.48
2022-10-19T22:16:47.610Z,422.80
2022-10-19T22:19:35.564Z,426.67
2022-10-19T22:22:23.610Z,421.52
2022-10-19T22:25:12.815Z,434.25
2022-10-19T22:28:00.873Z,406.60
2022-10-19T22:30:53.783Z,430.08
2022-10-19T22:33:42.210Z,446.58
2022-10-19T22:36:30.342Z,430.38
2022-10-19T22:39:18.664Z,425.73
2022-10-19T22:42:07.875Z,445.67
2022-10-19T22:44:55.740Z,418.38
2022-10-19T22:47:43.579Z,400.13
2022-10-19T22:50:31.451Z,414.92
2022-10-19T22:53:19.293Z,420.70
2022-10-19T22:56:08.579Z,409.77
2022-10-19T22:59:00.783Z,438.17
2022-10-19T23:01:48.701Z,427.67
2022-10-19T23:04:36.652Z,421.23
2022-10-19T23:07:24.632Z,442.75
2022-10-19T23:10:12.601Z,403.30
2022-10-19T23:13:00.468Z,412.42
2022-10-19T23:15:51.761Z,406.63
2022-10-19T23:18:41.656Z,407.65
2022-10-19T23:21:29.568Z,410.38
2022-10-19T23:24:17.517Z,417.17
2022-10-19T23:27:05.836Z,446.33
2022-10-19T23:29:53.760Z,414.75
2022-10-19T23:32:43.012Z,412.05
2022-10-19T23:35:30.921Z,413.92
2022-10-19T23:38:19.057Z,405.35
2022-10-19T23:41:07.590Z,440.58
2022-10-19T23:43:55.522Z,410.13
2022-10-19T23:46:43.421Z,409.27
2022-10-19T23:49:33.029Z,421.27
2022-10-19T23:52:20.933Z,446.40
2022-10-19T23:55:10.005Z,424.95
2022-10-19T23:57:57.941Z,441.75
